Terminal Aerodrome Forecast
Issued by NWS Louisville, KY

Home | Current Version | Previous Version | Text Only | Print | Product List | Glossary On
Versions: 1 2 3 4 5 6 7 8 9 10 11 12 13 14 15 16 17 18
000
FTUS43 KLMK 161720
TAFLEX
TAF
KLEX 161720Z 1618/1718 21008KT P6SM VCSH BKN025 BKN060
     FM162000 18007KT P6SM VCTS BKN035CB
     FM170000 VRB04KT P6SM BKN080 BKN250
     FM170900 VRB04KT 4SM BR SCT020 BKN250
     FM171300 21008KT P6SM BKN025=

USA.gov is the U.S. government's official web portal to all federal, state and local government web resources and services.